Terminal Aerodrome Forecast
Issued by NWS

Current Version | Previous Version | Text Only | Print | Product List | Glossary Off
Versions: 1 2 3 4 5 6 7 8 9 10 11 12 13 14 15 16 17 18 19 20

000
FTUS41 KILN 301700
TAFLUK
TAF
KLUK 301740Z 3018/3118 21010G18KT P6SM BKN060 OVC250
     FM302000 21010G18KT P6SM -SHRA VCTS BKN050CB OVC250
     FM302300 21005KT P6SM -SHRA OVC035
     FM310300 20005KT 4SM -SHRA BR OVC015
     FM311300 20006KT P6SM -SHRA OVC018
     FM311700 19008KT P6SM -SHRA VCTS BKN025CB OVC150=

USA.gov is the U.S. government's official web portal to all federal, state and local government web resources and services.